Time;durP1;ratioP1;P1;durP2;ratioP2;P2;SDS_P1;SDS_P2;PMS_P1;PMS_P2;Temp;Humidity;BMP_temperature;BMP_pressure;BME280_temperature;BME280_humidity;BME280_pressure;Samples;Min_cycle;Max_cycle;Signal;HPM_P1;HPM_P2
2021/03/02 00:00:23;;;;;;;11.10;7.43;;;8.70;76.30;;;;;;4947866;28;20125;-89
2021/03/02 00:02:50;;;;;;;10.95;7.65;;;8.70;76.20;;;;;;4979379;28;20046;-89
2021/03/02 00:05:16;;;;;;;12.48;8.45;;;8.60;76.20;;;;;;4995698;28;20031;-89
2021/03/02 00:07:42;;;;;;;12.60;8.00;;;8.60;76.20;;;;;;4979462;28;20108;-89
2021/03/02 00:10:09;;;;;;;11.38;7.50;;;8.60;76.20;;;;;;4979580;28;20038;-89
2021/03/02 00:12:36;;;;;;;11.30;7.40;;;8.60;76.30;;;;;;4990148;28;20122;-88
2021/03/02 00:15:04;;;;;;;10.07;7.32;;;8.60;76.30;;;;;;4979361;28;20037;-89
2021/03/02 00:17:36;;;;;;;12.30;8.00;;;8.60;76.30;;;;;;4979413;28;20050;-89
2021/03/02 00:20:05;;;;;;;12.63;8.23;;;8.60;76.30;;;;;;4979196;28;20109;-89
2021/03/02 00:22:39;;;;;;;11.65;8.50;;;8.50;76.20;;;;;;4995362;28;20018;-89
2021/03/02 00:25:06;;;;;;;11.65;8.05;;;8.60;76.30;;;;;;5003312;28;20026;-89
2021/03/02 00:27:35;;;;;;;12.60;7.70;;;8.50;76.30;;;;;;4975779;28;20015;-89
2021/03/02 00:30:03;;;;;;;11.85;7.75;;;8.50;76.30;;;;;;4990678;28;20026;-89
2021/03/02 00:32:29;;;;;;;10.75;7.45;;;8.50;76.30;;;;;;4978981;28;20026;-89
2021/03/02 00:34:55;;;;;;;12.77;8.10;;;8.50;76.30;;;;;;4975644;28;20114;-89
2021/03/02 00:37:21;;;;;;;12.88;8.63;;;8.50;76.30;;;;;;4964511;28;20122;-90
2021/03/02 00:39:46;;;;;;;13.00;8.90;;;8.50;76.30;;;;;;4977870;28;20039;-90
2021/03/02 00:42:12;;;;;;;13.20;8.57;;;8.50;76.30;;;;;;4978255;28;20101;-90
2021/03/02 00:44:38;;;;;;;12.50;8.02;;;8.50;76.30;;;;;;4962563;28;20022;-89
2021/03/02 00:47:04;;;;;;;13.25;7.85;;;8.40;76.20;;;;;;4978636;28;20463;-90
2021/03/02 00:49:31;;;;;;;11.52;7.82;;;8.40;76.30;;;;;;4995335;28;20475;-89
2021/03/02 00:51:57;;;;;;;12.20;8.18;;;8.40;76.30;;;;;;4978825;28;20169;-89
2021/03/02 00:54:23;;;;;;;11.35;7.78;;;8.40;76.30;;;;;;4978117;28;20069;-89
2021/03/02 00:56:48;;;;;;;11.65;7.82;;;8.40;76.30;;;;;;5002334;28;20121;-89
2021/03/02 00:59:17;;;;;;;12.60;7.97;;;8.40;76.30;;;;;;4996452;28;20030;-89
2021/03/02 01:01:44;;;;;;;11.32;7.95;;;8.30;76.30;;;;;;4961428;28;20435;-89
2021/03/02 01:04:10;;;;;;;11.85;8.20;;;8.30;76.30;;;;;;4978285;28;20041;-89
2021/03/02 01:06:36;;;;;;;12.43;8.18;;;8.30;76.30;;;;;;4978701;28;20035;-89
2021/03/02 01:09:06;;;;;;;12.65;8.15;;;8.30;76.30;;;;;;4994086;28;20038;-88
2021/03/02 01:11:32;;;;;;;13.25;8.23;;;8.30;76.40;;;;;;4978692;28;20026;-89
2021/03/02 01:13:58;;;;;;;12.48;7.82;;;8.30;76.40;;;;;;4978309;28;20036;-89
2021/03/02 01:16:24;;;;;;;13.02;8.15;;;8.30;76.40;;;;;;4982977;28;20053;-88
2021/03/02 01:18:50;;;;;;;11.93;8.10;;;8.30;76.40;;;;;;4994450;28;20125;-89
2021/03/02 01:21:16;;;;;;;13.35;8.30;;;8.20;76.30;;;;;;4974598;28;20114;-89
2021/03/02 01:23:41;;;;;;;12.20;7.75;;;8.20;76.40;;;;;;4984274;28;20034;-89
2021/03/02 01:26:08;;;;;;;12.55;8.38;;;8.20;76.40;;;;;;4961774;28;20372;-89
2021/03/02 01:28:33;;;;;;;11.90;8.02;;;8.20;76.40;;;;;;4978211;28;20045;-89
2021/03/02 01:30:59;;;;;;;12.32;8.30;;;8.20;76.40;;;;;;4974078;28;20031;-89
2021/03/02 01:33:25;;;;;;;12.13;8.70;;;8.20;76.40;;;;;;4989744;28;20537;-88
2021/03/02 01:35:51;;;;;;;14.25;8.45;;;8.20;76.40;;;;;;4966274;28;20084;-89
2021/03/02 01:38:16;;;;;;;13.57;8.48;;;8.20;76.40;;;;;;4977191;28;20372;-89
2021/03/02 01:40:42;;;;;;;13.43;8.73;;;8.10;76.40;;;;;;4993564;28;20403;-89
2021/03/02 01:43:09;;;;;;;13.23;8.25;;;8.10;76.40;;;;;;4977528;28;20026;-89
2021/03/02 01:45:36;;;;;;;13.85;8.30;;;8.10;76.40;;;;;;4993733;28;20601;-89
2021/03/02 01:48:02;;;;;;;12.73;8.38;;;8.00;76.40;;;;;;4993898;28;20034;-89
2021/03/02 01:50:28;;;;;;;12.48;7.88;;;8.10;76.50;;;;;;4993108;28;20423;-90
2021/03/02 01:52:54;;;;;;;13.00;8.65;;;8.00;76.40;;;;;;4977725;28;20108;-89
2021/03/02 01:55:19;;;;;;;12.00;7.18;;;8.00;76.40;;;;;;4973340;28;20158;-89
2021/03/02 01:57:46;;;;;;;13.32;8.20;;;8.00;76.40;;;;;;4977467;28;20077;-89
2021/03/02 02:00:22;;;;;;;12.07;7.63;;;8.00;76.50;;;;;;4973174;28;20423;-88
2021/03/02 02:03:09;;;;;;;13.85;8.20;;;8.00;76.50;;;;;;4992796;28;20121;-89
2021/03/02 02:05:41;;;;;;;12.35;7.72;;;8.00;76.60;;;;;;4993467;28;20030;-88
2021/03/02 02:08:10;;;;;;;11.75;7.43;;;8.00;76.50;;;;;;4993404;28;20026;-89
2021/03/02 02:10:55;;;;;;;12.05;8.10;;;7.90;76.40;;;;;;4977965;28;20391;-89
2021/03/02 02:13:33;;;;;;;12.23;7.97;;;7.90;76.50;;;;;;4998604;28;20526;-89
2021/03/02 02:16:04;;;;;;;11.43;7.70;;;7.90;76.50;;;;;;4976929;28;20041;-89
2021/03/02 02:18:33;;;;;;;12.93;7.80;;;7.80;76.40;;;;;;4993199;28;20127;-89
2021/03/02 02:21:10;;;;;;;11.75;8.00;;;7.80;76.50;;;;;;4992747;28;20022;-89
2021/03/02 02:23:52;;;;;;;12.32;8.50;;;7.80;76.50;;;;;;4993319;28;20065;-89
2021/03/02 02:26:44;;;;;;;12.68;8.05;;;7.80;76.60;;;;;;4993346;28;20475;-89
2021/03/02 02:29:15;;;;;;;12.20;7.75;;;7.80;76.60;;;;;;4977247;28;20088;-89
2021/03/02 02:31:43;;;;;;;12.25;7.85;;;7.80;76.50;;;;;;4976881;28;20455;-88
2021/03/02 02:34:12;;;;;;;12.95;8.40;;;7.80;76.50;;;;;;4993111;28;20030;-88
2021/03/02 02:36:39;;;;;;;12.52;8.30;;;7.70;76.50;;;;;;4974010;28;20466;-87
2021/03/02 02:39:07;;;;;;;13.77;8.52;;;7.70;76.50;;;;;;4991902;28;20101;-88
2021/03/02 02:41:34;;;;;;;12.20;7.78;;;7.70;76.50;;;;;;5001958;28;20030;-88
2021/03/02 02:44:00;;;;;;;12.95;8.52;;;7.70;76.50;;;;;;4974823;28;20023;-88
2021/03/02 02:46:26;;;;;;;12.20;8.43;;;7.70;76.60;;;;;;4985731;28;20057;-89
2021/03/02 02:48:56;;;;;;;13.57;8.90;;;7.70;76.50;;;;;;4992912;28;20057;-88
2021/03/02 02:51:22;;;;;;;11.73;7.85;;;7.70;76.60;;;;;;4993145;28;20054;-89
2021/03/02 02:53:48;;;;;;;12.55;7.97;;;7.60;76.50;;;;;;4974966;28;20102;-88
2021/03/02 02:56:17;;;;;;;12.80;8.15;;;7.60;76.50;;;;;;4974580;28;20134;-88
2021/03/02 02:59:02;;;;;;;12.80;8.23;;;7.60;76.50;;;;;;4977076;28;20061;-89
2021/03/02 03:01:32;;;;;;;12.30;8.07;;;7.60;76.60;;;;;;4983515;28;20053;-87
2021/03/02 03:04:02;;;;;;;11.68;7.55;;;7.60;76.50;;;;;;4978446;28;20038;-88
2021/03/02 03:06:30;;;;;;;11.65;7.88;;;7.60;76.50;;;;;;4980820;28;20364;-88
2021/03/02 03:09:00;;;;;;;12.77;7.97;;;7.60;76.50;;;;;;4996883;28;20030;-88
2021/03/02 03:11:31;;;;;;;13.52;8.57;;;7.50;76.50;;;;;;4974718;28;20042;-88
2021/03/02 03:13:58;;;;;;;12.95;8.18;;;7.50;76.60;;;;;;4976232;28;20374;-87
2021/03/02 03:16:25;;;;;;;13.48;8.65;;;7.50;76.50;;;;;;4962156;28;20451;-88
2021/03/02 03:18:55;;;;;;;13.32;8.25;;;7.50;76.50;;;;;;4977467;28;20043;-89
2021/03/02 03:21:21;;;;;;;12.55;8.13;;;7.50;76.50;;;;;;4997313;28;20030;-88
2021/03/02 03:23:50;;;;;;;12.88;9.07;;;7.50;76.50;;;;;;4997647;28;20026;-88
2021/03/02 03:26:18;;;;;;;12.25;8.25;;;7.40;76.50;;;;;;4980345;28;20097;-87
2021/03/02 03:28:48;;;;;;;12.93;8.30;;;7.40;76.60;;;;;;4980304;28;20030;-86
2021/03/02 03:31:16;;;;;;;13.90;8.50;;;7.40;76.60;;;;;;4996733;28;20034;-88
2021/03/02 03:33:42;;;;;;;12.43;8.63;;;7.40;76.50;;;;;;4996222;28;20048;-88
2021/03/02 03:36:10;;;;;;;13.43;8.93;;;7.40;76.50;;;;;;4964201;28;20038;-89
2021/03/02 03:38:36;;;;;;;12.73;8.73;;;7.40;76.50;;;;;;4984502;28;20035;-89
2021/03/02 03:41:02;;;;;;;13.18;8.55;;;7.40;76.50;;;;;;4977969;28;20415;-89
2021/03/02 03:43:27;;;;;;;13.93;9.10;;;7.40;76.60;;;;;;4974398;28;20065;-89
2021/03/02 03:45:53;;;;;;;12.90;7.85;;;7.40;76.60;;;;;;4996312;28;20058;-88
2021/03/02 03:48:19;;;;;;;13.18;8.02;;;7.30;76.50;;;;;;4995928;28;20073;-89
2021/03/02 03:50:45;;;;;;;13.00;8.52;;;7.30;76.50;;;;;;4980186;28;20034;-89
2021/03/02 03:53:12;;;;;;;15.38;9.13;;;7.30;76.60;;;;;;4979849;28;20647;-88
2021/03/02 03:55:41;;;;;;;13.43;8.48;;;7.30;76.60;;;;;;4976473;28;20070;-88
2021/03/02 03:58:10;;;;;;;12.85;8.25;;;7.30;76.60;;;;;;4977268;28;20037;-88
2021/03/02 04:00:36;;;;;;;13.75;8.60;;;7.30;76.60;;;;;;4976240;28;20515;-88
2021/03/02 04:03:03;;;;;;;13.93;8.30;;;7.30;76.60;;;;;;4963386;28;20065;-88
2021/03/02 04:05:29;;;;;;;13.90;9.57;;;7.20;76.60;;;;;;4986974;28;20038;-89
2021/03/02 04:07:56;;;;;;;13.77;9.15;;;7.20;76.60;;;;;;4991263;28;20113;-89
2021/03/02 04:10:22;;;;;;;13.13;8.27;;;7.20;76.60;;;;;;4988485;28;20109;-88
2021/03/02 04:12:47;;;;;;;16.42;9.75;;;7.20;76.60;;;;;;4976428;28;20126;-88
2021/03/02 04:15:17;;;;;;;13.90;9.00;;;7.20;76.60;;;;;;4991413;28;20042;-88
2021/03/02 04:17:51;;;;;;;13.45;9.15;;;7.20;77.30;;;;;;4995182;28;20041;-88
2021/03/02 04:20:17;;;;;;;13.68;9.07;;;7.20;76.70;;;;;;4979160;28;20525;-87
2021/03/02 04:22:43;;;;;;;13.40;8.45;;;7.10;76.60;;;;;;4995378;28;20026;-89
2021/03/02 04:25:09;;;;;;;13.95;9.18;;;7.10;76.60;;;;;;4967528;28;20033;-88
2021/03/02 04:27:34;;;;;;;13.05;9.02;;;7.10;76.60;;;;;;4995245;28;20046;-89
2021/03/02 04:30:00;;;;;;;14.68;8.70;;;7.10;76.60;;;;;;4995524;28;20033;-88
2021/03/02 04:32:26;;;;;;;14.43;8.98;;;7.10;76.60;;;;;;4977486;28;20398;-87
2021/03/02 04:34:52;;;;;;;13.98;9.00;;;7.10;76.60;;;;;;4962990;28;20041;-88
2021/03/02 04:37:18;;;;;;;15.52;9.05;;;7.00;76.60;;;;;;4980861;28;20034;-88
2021/03/02 04:39:44;;;;;;;13.32;8.32;;;7.00;76.60;;;;;;4975723;28;20023;-88
2021/03/02 04:42:10;;;;;;;13.75;8.73;;;7.00;76.70;;;;;;4990561;28;20121;-88
2021/03/02 04:44:36;;;;;;;13.70;8.93;;;7.00;76.60;;;;;;4946807;28;20041;-88
2021/03/02 04:47:01;;;;;;;13.40;8.23;;;7.00;76.60;;;;;;4995212;28;20035;-88
2021/03/02 04:49:27;;;;;;;15.00;8.93;;;7.00;76.60;;;;;;4950516;28;20030;-88
2021/03/02 04:51:53;;;;;;;14.55;8.55;;;7.00;76.60;;;;;;4969102;28;20039;-88
2021/03/02 04:54:19;;;;;;;13.23;8.57;;;6.90;76.60;;;;;;5000154;28;20525;-88
2021/03/02 04:56:45;;;;;;;13.95;8.65;;;6.90;76.60;;;;;;4995502;28;20034;-88
2021/03/02 04:59:10;;;;;;;15.13;9.60;;;6.90;76.60;;;;;;4992656;28;20109;-88
2021/03/02 05:01:36;;;;;;;15.50;9.38;;;6.90;76.60;;;;;;4958966;28;20034;-88
2021/03/02 05:04:03;;;;;;;13.63;9.10;;;6.90;76.60;;;;;;4984832;28;20554;-88
2021/03/02 05:06:28;;;;;;;15.95;9.77;;;6.90;76.70;;;;;;4981436;28;20049;-88
2021/03/02 05:08:54;;;;;;;14.80;9.27;;;6.90;76.70;;;;;;4995957;28;20058;-88
2021/03/02 05:11:20;;;;;;;14.05;8.65;;;6.90;76.70;;;;;;4994093;28;20494;-87
2021/03/02 05:13:46;;;;;;;13.15;8.77;;;6.90;76.70;;;;;;4994483;28;20040;-87
2021/03/02 05:16:13;;;;;;;14.05;8.82;;;6.90;76.70;;;;;;4976980;28;20077;-88
2021/03/02 05:18:42;;;;;;;13.85;9.38;;;6.80;76.60;;;;;;4978203;28;20467;-88
2021/03/02 05:21:08;;;;;;;13.80;8.60;;;6.80;76.60;;;;;;4961186;28;20022;-87
2021/03/02 05:23:36;;;;;;;13.95;9.20;;;6.80;76.50;;;;;;4984528;28;20113;-87
2021/03/02 05:26:02;;;;;;;13.93;8.77;;;6.80;76.60;;;;;;4993719;28;20073;-87
2021/03/02 05:28:28;;;;;;;13.35;8.52;;;6.80;76.60;;;;;;4994749;28;20034;-87
2021/03/02 05:30:54;;;;;;;14.10;9.27;;;6.80;76.60;;;;;;5000804;28;20093;-87
2021/03/02 05:33:20;;;;;;;15.70;9.23;;;6.80;76.60;;;;;;4995779;28;20027;-88
2021/03/02 05:35:45;;;;;;;13.57;8.73;;;6.80;76.60;;;;;;4962816;28;20031;-87
2021/03/02 05:38:11;;;;;;;13.13;8.93;;;6.70;76.50;;;;;;4978547;28;20034;-87
2021/03/02 05:40:41;;;;;;;14.25;9.38;;;6.70;76.50;;;;;;4992942;28;20027;-88
2021/03/02 05:43:07;;;;;;;14.15;9.48;;;6.70;76.50;;;;;;4974668;28;20034;-84
2021/03/02 05:45:33;;;;;;;13.00;8.05;;;6.70;76.50;;;;;;4992145;28;20042;-84
2021/03/02 05:47:59;;;;;;;14.85;8.75;;;6.70;76.50;;;;;;4978033;28;20022;-85
2021/03/02 05:50:26;;;;;;;14.85;9.60;;;6.70;76.60;;;;;;4978210;28;20033;-85
2021/03/02 05:52:55;;;;;;;13.45;9.07;;;6.70;76.60;;;;;;4972055;28;20029;-86
2021/03/02 05:55:22;;;;;;;13.23;9.05;;;6.70;76.60;;;;;;4993894;28;20471;-85
2021/03/02 05:57:49;;;;;;;13.35;8.70;;;6.60;76.50;;;;;;4992425;28;20033;-84
2021/03/02 06:00:16;;;;;;;15.15;8.93;;;6.70;76.60;;;;;;5003509;28;20105;-84
2021/03/02 06:02:42;;;;;;;12.48;8.05;;;6.70;76.60;;;;;;4995692;28;20092;-83
2021/03/02 06:05:09;;;;;;;13.82;9.20;;;6.60;76.50;;;;;;4973940;28;20034;-84
2021/03/02 06:07:35;;;;;;;14.18;9.02;;;6.60;76.50;;;;;;4975985;28;20049;-84
2021/03/02 06:10:00;;;;;;;13.38;8.27;;;6.60;76.50;;;;;;4981140;28;20027;-84
2021/03/02 06:12:26;;;;;;;13.75;9.27;;;6.60;76.60;;;;;;4993906;28;20023;-84
2021/03/02 06:15:05;;;;;;;14.50;9.13;;;6.60;76.60;;;;;;4971285;28;20049;-84
2021/03/02 06:17:31;;;;;;;13.38;8.70;;;6.60;76.70;;;;;;4992759;28;20034;-82
2021/03/02 06:19:57;;;;;;;13.75;8.70;;;6.50;76.50;;;;;;4973098;28;20022;-82
2021/03/02 06:22:38;;;;;;;13.85;9.30;;;6.50;76.50;;;;;;4992532;28;20031;-83
2021/03/02 06:25:07;;;;;;;13.48;9.15;;;6.50;76.70;;;;;;4991699;28;20093;-83
2021/03/02 06:27:33;;;;;;;12.30;8.57;;;6.50;76.60;;;;;;4981221;28;20019;-83
2021/03/02 06:30:15;;;;;;;11.75;8.48;;;6.50;76.60;;;;;;4993130;28;20037;-82
2021/03/02 06:32:45;;;;;;;13.93;9.10;;;6.50;76.70;;;;;;4977937;28;20073;-83
2021/03/02 06:35:12;;;;;;;13.48;8.55;;;6.50;76.60;;;;;;4984837;28;20038;-83
2021/03/02 06:37:40;;;;;;;14.40;9.43;;;6.50;76.60;;;;;;4992670;28;20038;-84
2021/03/02 06:40:07;;;;;;;15.63;9.70;;;6.50;76.60;;;;;;4993285;28;20022;-87
2021/03/02 06:42:40;;;;;;;14.43;9.80;;;6.40;76.60;;;;;;4960279;28;20057;-82
2021/03/02 06:45:08;;;;;;;14.02;8.70;;;6.40;76.70;;;;;;4992196;28;20027;-83
2021/03/02 06:47:39;;;;;;;13.38;8.80;;;6.40;76.60;;;;;;4993729;28;20027;-83
2021/03/02 06:50:11;;;;;;;13.07;8.43;;;6.40;76.70;;;;;;4992344;28;20030;-83
2021/03/02 06:52:39;;;;;;;13.75;8.90;;;6.40;76.70;;;;;;4993505;28;20037;-83
2021/03/02 06:55:23;;;;;;;13.30;8.98;;;6.40;76.70;;;;;;4992534;28;20065;-83
2021/03/02 06:57:50;;;;;;;14.20;9.13;;;6.40;76.80;;;;;;4976249;28;20038;-83
2021/03/02 07:00:31;;;;;;;13.48;8.65;;;6.40;76.70;;;;;;4976342;28;20058;-83
2021/03/02 07:02:56;;;;;;;12.80;8.43;;;6.40;76.80;;;;;;4976097;28;20093;-83
2021/03/02 07:05:22;;;;;;;13.50;8.57;;;6.40;76.70;;;;;;4960435;28;20487;-85
2021/03/02 07:07:55;;;;;;;11.70;8.18;;;6.40;76.70;;;;;;4976569;28;20030;-83
2021/03/02 07:10:22;;;;;;;13.20;8.70;;;6.40;76.70;;;;;;4961525;28;20130;-84
2021/03/02 07:12:47;;;;;;;12.45;8.40;;;6.30;76.70;;;;;;4992268;28;20395;-83
2021/03/02 07:15:19;;;;;;;13.77;8.63;;;6.30;76.70;;;;;;4957138;28;20053;-84
2021/03/02 07:17:49;;;;;;;14.88;9.25;;;6.30;76.70;;;;;;4979432;28;20023;-83
2021/03/02 07:20:18;;;;;;;12.13;8.68;;;6.30;76.70;;;;;;4973415;28;20031;-84
2021/03/02 07:22:54;;;;;;;12.82;8.20;;;6.30;76.70;;;;;;4976272;28;20471;-83
2021/03/02 07:25:22;;;;;;;14.52;8.98;;;6.30;76.80;;;;;;4973186;28;20038;-84
2021/03/02 07:27:52;;;;;;;13.07;8.48;;;6.30;76.70;;;;;;4973292;28;20019;-83
2021/03/02 07:30:19;;;;;;;14.23;9.10;;;6.30;76.80;;;;;;4989012;28;20636;-82
2021/03/02 07:32:45;;;;;;;13.65;8.85;;;6.30;76.80;;;;;;4992205;28;20026;-82
2021/03/02 07:35:16;;;;;;;14.65;9.15;;;6.30;76.70;;;;;;4992458;28;20039;-84
2021/03/02 07:37:43;;;;;;;12.60;8.18;;;6.30;76.80;;;;;;4993351;28;20113;-83
2021/03/02 07:40:14;;;;;;;12.60;8.25;;;6.30;76.80;;;;;;4975899;28;20089;-83
2021/03/02 07:42:40;;;;;;;11.93;7.93;;;6.30;76.80;;;;;;4979930;28;20039;-83
2021/03/02 07:45:17;;;;;;;11.95;8.15;;;6.30;76.80;;;;;;4975829;28;20069;-83
2021/03/02 07:47:45;;;;;;;12.75;8.45;;;6.30;76.90;;;;;;4975588;28;20054;-83
2021/03/02 07:50:20;;;;;;;12.55;8.43;;;6.30;76.80;;;;;;4994623;28;20062;-84
2021/03/02 07:52:46;;;;;;;13.20;8.48;;;6.30;76.80;;;;;;4979646;28;20026;-84
2021/03/02 07:55:18;;;;;;;12.32;8.07;;;6.30;76.80;;;;;;4976459;28;20043;-84
2021/03/02 07:57:43;;;;;;;13.07;8.20;;;6.30;76.80;;;;;;4977192;28;20411;-83
2021/03/02 08:00:18;;;;;;;13.00;8.25;;;6.30;76.80;;;;;;4986264;28;20085;-84
2021/03/02 08:03:03;;;;;;;12.63;8.18;;;6.30;76.80;;;;;;4976441;28;20142;-84
2021/03/02 08:05:30;;;;;;;13.70;8.07;;;6.30;76.80;;;;;;4979218;28;20034;-83
2021/03/02 08:08:29;;;;;;;13.65;8.50;;;6.30;76.80;;;;;;4995211;28;20092;-84
2021/03/02 08:10:56;;;;;;;11.98;8.23;;;6.30;77.00;;;;;;4946827;28;20054;-83
2021/03/02 08:13:41;;;;;;;12.35;8.13;;;6.30;76.80;;;;;;4979484;28;20054;-83
2021/03/02 08:16:13;;;;;;;11.85;7.57;;;6.30;76.90;;;;;;4974750;28;20096;-84
2021/03/02 08:18:40;;;;;;;12.25;7.35;;;6.30;76.80;;;;;;4979650;28;20061;-85
2021/03/02 08:21:13;;;;;;;14.43;9.05;;;6.30;76.90;;;;;;4979400;28;20113;-83
2021/03/02 08:23:54;;;;;;;11.40;7.80;;;6.30;76.90;;;;;;4991723;28;20034;-84
2021/03/02 08:26:31;;;;;;;11.73;8.00;;;6.30;77.00;;;;;;4968031;28;20035;-85
2021/03/02 08:29:09;;;;;;;11.75;7.85;;;6.30;76.90;;;;;;4978142;28;20030;-85
2021/03/02 08:31:37;;;;;;;11.95;7.93;;;6.30;77.00;;;;;;4987887;28;20050;-85
2021/03/02 08:34:05;;;;;;;11.98;7.50;;;6.30;76.90;;;;;;4995657;28;20035;-84
2021/03/02 08:36:31;;;;;;;12.38;8.18;;;6.30;76.90;;;;;;4963010;28;20041;-84
2021/03/02 08:38:57;;;;;;;13.10;8.52;;;6.30;76.90;;;;;;4993912;28;20112;-84
2021/03/02 08:41:35;;;;;;;13.20;7.68;;;6.30;77.00;;;;;;4995443;28;20070;-84
2021/03/02 08:44:01;;;;;;;13.45;8.30;;;6.40;77.10;;;;;;4994555;28;20056;-84
2021/03/02 08:46:29;;;;;;;12.05;7.82;;;6.40;77.00;;;;;;4978317;28;20539;-84
2021/03/02 08:48:55;;;;;;;12.77;8.40;;;6.40;77.00;;;;;;4978220;28;20026;-84
2021/03/02 08:51:23;;;;;;;13.30;8.85;;;6.40;77.00;;;;;;4971023;28;20038;-83
2021/03/02 08:53:50;;;;;;;11.73;7.97;;;6.40;77.10;;;;;;4972012;28;20054;-84
2021/03/02 08:56:17;;;;;;;13.00;8.52;;;6.40;77.00;;;;;;4963187;28;20038;-85
2021/03/02 08:58:44;;;;;;;11.63;8.05;;;6.40;77.00;;;;;;4995147;28;20050;-86
2021/03/02 09:01:16;;;;;;;11.48;7.57;;;6.40;77.00;;;;;;4985359;28;20041;-83
2021/03/02 09:03:44;;;;;;;12.55;8.10;;;6.50;77.10;;;;;;4970559;28;20111;-89
2021/03/02 09:06:24;;;;;;;13.63;8.25;;;6.50;77.10;;;;;;4959208;28;20109;-88
2021/03/02 09:08:58;;;;;;;11.65;7.63;;;6.50;77.20;;;;;;4987195;28;20031;-88
2021/03/02 09:11:27;;;;;;;12.55;8.40;;;6.50;77.10;;;;;;4981173;28;20030;-88
2021/03/02 09:13:57;;;;;;;11.50;7.55;;;6.50;77.10;;;;;;4986394;28;20030;-88
2021/03/02 09:16:28;;;;;;;13.27;8.88;;;6.50;77.20;;;;;;4977698;28;20396;-88
2021/03/02 09:18:58;;;;;;;11.82;8.30;;;6.60;77.30;;;;;;4978335;28;20118;-88
2021/03/02 09:21:25;;;;;;;14.75;8.05;;;6.60;77.20;;;;;;4994394;28;20031;-88
2021/03/02 09:23:51;;;;;;;12.05;8.32;;;6.60;77.30;;;;;;4957885;28;20030;-87
2021/03/02 09:26:22;;;;;;;13.05;7.97;;;6.70;77.20;;;;;;4977965;28;20030;-88
2021/03/02 09:29:00;;;;;;;11.80;7.97;;;6.70;77.30;;;;;;4993753;28;20109;-89
2021/03/02 09:31:28;;;;;;;12.20;7.63;;;6.70;77.30;;;;;;4974845;28;20035;-89
2021/03/02 09:33:54;;;;;;;12.10;7.68;;;6.80;77.20;;;;;;4980632;28;20026;-88
2021/03/02 09:36:24;;;;;;;12.65;7.97;;;6.80;77.10;;;;;;4994109;28;20475;-89
2021/03/02 09:38:51;;;;;;;12.65;7.85;;;6.90;77.20;;;;;;4977781;28;20033;-89
2021/03/02 09:41:34;;;;;;;11.02;7.78;;;6.90;77.10;;;;;;4993935;28;20050;-89
2021/03/02 09:44:22;;;;;;;12.70;8.30;;;6.90;77.20;;;;;;4974770;28;20023;-89
2021/03/02 09:46:53;;;;;;;12.38;8.00;;;7.00;77.20;;;;;;4976316;28;20038;-90
2021/03/02 09:49:41;;;;;;;12.05;7.72;;;7.10;77.10;;;;;;4995031;28;20027;-89
2021/03/02 09:52:24;;;;;;;12.13;7.63;;;7.10;77.20;;;;;;4977539;28;20031;-89
2021/03/02 09:55:18;;;;;;;11.63;7.72;;;7.20;77.20;;;;;;4977196;28;20023;-89
2021/03/02 09:58:06;;;;;;;10.73;7.07;;;7.20;77.10;;;;;;4989326;28;20121;-87
2021/03/02 10:00:45;;;;;;;11.50;7.40;;;7.20;77.10;;;;;;4987605;28;20121;-89
2021/03/02 10:03:17;;;;;;;12.90;8.52;;;7.30;77.00;;;;;;4975794;28;20104;-84
2021/03/02 10:05:52;;;;;;;11.15;7.43;;;7.30;77.00;;;;;;4977658;28;20018;-89
2021/03/02 10:08:33;;;;;;;12.07;7.95;;;7.40;77.10;;;;;;4966658;28;20030;-88
2021/03/02 10:11:12;;;;;;;11.35;7.85;;;7.50;77.30;;;;;;4976261;28;20023;-88
2021/03/02 10:13:52;;;;;;;11.15;7.63;;;7.50;77.20;;;;;;4982582;28;20030;-89
2021/03/02 10:16:19;;;;;;;9.70;6.90;;;7.60;77.30;;;;;;4979975;28;20030;-88
2021/03/02 10:18:58;;;;;;;11.48;8.00;;;7.70;77.30;;;;;;4984759;28;20037;-89
2021/03/02 10:21:36;;;;;;;11.65;7.45;;;7.70;77.40;;;;;;4987891;28;20592;-89
2021/03/02 10:24:03;;;;;;;11.80;7.80;;;7.80;77.40;;;;;;4984119;28;20034;-89
2021/03/02 10:26:37;;;;;;;11.18;7.78;;;7.90;77.40;;;;;;4993420;28;20110;-89
2021/03/02 10:29:07;;;;;;;12.23;8.25;;;8.00;77.50;;;;;;4993964;28;20144;-88
2021/03/02 10:31:35;;;;;;;11.95;7.88;;;8.00;77.40;;;;;;4994818;28;20038;-88
2021/03/02 10:34:02;;;;;;;11.48;7.75;;;8.10;77.50;;;;;;4992994;28;20030;-88
2021/03/02 10:36:33;;;;;;;11.65;7.82;;;8.20;77.50;;;;;;4982604;28;20143;-89
2021/03/02 10:39:00;;;;;;;10.75;7.78;;;8.30;77.60;;;;;;4974922;28;20023;-89
2021/03/02 10:41:27;;;;;;;10.80;7.57;;;8.40;77.60;;;;;;4977104;28;20411;-89
2021/03/02 10:43:54;;;;;;;12.00;8.43;;;8.50;77.70;;;;;;4994315;28;20081;-89
2021/03/02 10:46:22;;;;;;;11.90;8.32;;;8.60;77.70;;;;;;4973740;28;20031;-88
2021/03/02 10:48:48;;;;;;;11.18;7.45;;;8.70;77.80;;;;;;4985177;28;20476;-88
2021/03/02 10:51:16;;;;;;;12.85;7.57;;;8.80;77.80;;;;;;4976566;28;20022;-88
2021/03/02 10:53:42;;;;;;;12.55;8.50;;;8.90;77.80;;;;;;4993210;28;20069;-89
2021/03/02 10:56:08;;;;;;;11.45;8.65;;;8.90;77.80;;;;;;4988234;28;20039;-88
2021/03/02 10:58:34;;;;;;;11.63;7.97;;;9.10;77.90;;;;;;4984539;28;20537;-88
2021/03/02 11:01:00;;;;;;;11.38;8.45;;;9.10;77.90;;;;;;4977072;28;20412;-90
2021/03/02 11:03:26;;;;;;;11.10;8.20;;;9.20;77.90;;;;;;4974696;28;20089;-89
2021/03/02 11:05:52;;;;;;;11.07;7.72;;;9.30;77.90;;;;;;4959127;28;20030;-88
2021/03/02 11:08:19;;;;;;;11.50;7.68;;;9.40;78.00;;;;;;4976213;28;20034;-85
2021/03/02 11:10:46;;;;;;;11.73;8.25;;;9.50;78.30;;;;;;4975259;28;20037;-80
2021/03/02 11:13:12;;;;;;;12.73;9.13;;;9.60;78.60;;;;;;4971849;28;20054;-86
2021/03/02 11:15:38;;;;;;;12.43;9.00;;;9.80;78.70;;;;;;4970523;28;20034;-86
2021/03/02 11:18:04;;;;;;;12.30;8.98;;;9.90;78.50;;;;;;4976120;28;20045;-86
2021/03/02 11:20:31;;;;;;;13.95;9.60;;;10.10;78.50;;;;;;4976441;28;20023;-85
2021/03/02 11:22:57;;;;;;;13.15;8.98;;;10.20;78.30;;;;;;4956634;28;20090;-85
2021/03/02 11:25:23;;;;;;;12.55;9.07;;;10.30;78.10;;;;;;4990037;28;20038;-85
2021/03/02 11:27:51;;;;;;;12.25;9.35;;;10.40;78.10;;;;;;4967113;28;20034;-85
2021/03/02 11:30:18;;;;;;;13.32;9.07;;;10.60;78.10;;;;;;4976014;28;20040;-85
2021/03/02 11:32:43;;;;;;;12.40;8.43;;;10.60;78.00;;;;;;4996342;28;20081;-86
2021/03/02 11:35:09;;;;;;;11.75;9.07;;;10.80;78.10;;;;;;4963409;28;20427;-84
2021/03/02 11:37:40;;;;;;;11.95;8.70;;;10.80;78.00;;;;;;4979337;28;20050;-85
2021/03/02 11:40:09;;;;;;;11.60;9.38;;;10.90;77.90;;;;;;4995833;28;20092;-84
2021/03/02 11:42:35;;;;;;;13.27;8.75;;;11.00;77.90;;;;;;4996104;28;20450;-85
2021/03/02 11:45:03;;;;;;;11.70;8.68;;;11.20;77.80;;;;;;4995852;28;20053;-85
2021/03/02 11:47:28;;;;;;;13.02;9.32;;;11.20;77.70;;;;;;4996011;28;20030;-86
2021/03/02 11:49:54;;;;;;;12.02;9.10;;;11.30;77.60;;;;;;4963429;28;20110;-85
2021/03/02 11:52:21;;;;;;;12.07;8.77;;;11.40;77.60;;;;;;4995757;28;20034;-85
2021/03/02 11:54:48;;;;;;;12.45;9.18;;;11.50;77.50;;;;;;4979250;28;20018;-86
2021/03/02 11:57:14;;;;;;;12.23;8.18;;;11.60;77.30;;;;;;4995850;28;20037;-85
2021/03/02 11:59:40;;;;;;;12.60;8.85;;;11.70;77.20;;;;;;4996432;28;20033;-86
2021/03/02 12:02:06;;;;;;;12.48;9.30;;;11.70;77.10;;;;;;4946589;28;20050;-85
2021/03/02 12:04:32;;;;;;;12.18;9.05;;;11.80;77.00;;;;;;4995283;28;20027;-85
2021/03/02 12:06:58;;;;;;;12.15;8.77;;;11.90;76.90;;;;;;4963220;28;20057;-84
2021/03/02 12:09:23;;;;;;;13.00;8.95;;;12.00;76.80;;;;;;4978793;28;20413;-86
2021/03/02 12:11:49;;;;;;;11.70;8.38;;;12.00;76.70;;;;;;4975589;28;20522;-85
2021/03/02 12:14:15;;;;;;;11.70;8.90;;;12.10;76.70;;;;;;4991580;28;20042;-86
2021/03/02 12:16:41;;;;;;;11.80;9.13;;;12.20;76.60;;;;;;4995696;28;20035;-86
2021/03/02 12:19:06;;;;;;;13.00;9.10;;;12.30;76.50;;;;;;4995196;28;20027;-84
2021/03/02 12:21:32;;;;;;;13.30;8.50;;;12.30;76.20;;;;;;4947455;28;20026;-86
2021/03/02 12:23:58;;;;;;;10.80;8.07;;;12.30;76.40;;;;;;4978962;28;20121;-85
2021/03/02 12:26:24;;;;;;;11.30;7.82;;;12.40;76.40;;;;;;4994930;28;20042;-85
2021/03/02 12:28:49;;;;;;;10.40;8.00;;;12.40;76.20;;;;;;4995948;28;20027;-84
2021/03/02 12:31:15;;;;;;;12.75;9.30;;;12.50;75.90;;;;;;4996147;28;20034;-87
2021/03/02 12:33:41;;;;;;;13.38;8.50;;;12.60;75.90;;;;;;4980285;28;20088;-89
2021/03/02 12:36:07;;;;;;;11.10;8.43;;;12.60;75.80;;;;;;4989602;28;20034;-86
2021/03/02 12:38:33;;;;;;;10.27;7.85;;;12.70;75.60;;;;;;4987242;28;20022;-85
2021/03/02 12:40:58;;;;;;;11.05;7.80;;;12.70;75.60;;;;;;4978937;28;20034;-86
2021/03/02 12:43:24;;;;;;;10.80;8.27;;;12.80;75.60;;;;;;4978203;28;20026;-85
2021/03/02 12:45:50;;;;;;;11.13;8.07;;;12.80;75.50;;;;;;4994777;28;20421;-86
2021/03/02 12:48:16;;;;;;;10.98;8.07;;;12.90;75.40;;;;;;4962702;28;20022;-86
2021/03/02 12:50:42;;;;;;;12.43;9.10;;;13.00;75.40;;;;;;4983568;28;20041;-85
2021/03/02 12:53:08;;;;;;;11.20;8.18;;;13.00;75.20;;;;;;4995946;28;20041;-84